createdAt,value
2023-01-30T00:02:59.204Z,7.95
2023-01-30T00:05:05.851Z,8
2023-01-30T00:07:59.320Z,8.01
2023-01-30T00:11:00.201Z,8.21
2023-01-30T00:12:59.399Z,8.34
2023-01-30T00:15:59.236Z,8.45
2023-01-30T00:18:06.563Z,8.51
2023-01-30T00:23:12.592Z,8.62
2023-01-30T00:27:05.757Z,8.77
2023-01-30T00:29:06.282Z,8.81
2023-01-30T00:34:59.243Z,8.74
2023-01-30T00:38:02.364Z,8.78
2023-01-30T00:40:00.051Z,8.72
2023-01-30T00:42:59.646Z,8.8
2023-01-30T00:44:59.664Z,8.85
2023-01-30T00:48:00.183Z,8.95
2023-01-30T00:52:12.357Z,9.02
2023-01-30T00:54:12.628Z,9.04
2023-01-30T00:58:12.418Z,9.14
2023-01-30T01:00:13.113Z,9.12
2023-01-30T01:03:05.953Z,9.14
2023-01-30T01:05:06.394Z,9.14
2023-01-30T01:07:12.801Z,9.09
2023-01-30T01:10:06.033Z,9.07
2023-01-30T01:12:59.884Z,9.09
2023-01-30T01:16:59.195Z,9.12
2023-01-30T01:19:05.809Z,9.05
2023-01-30T01:21:59.210Z,8.83
2023-01-30T01:24:00.142Z,8.89
2023-01-30T01:27:05.799Z,9.07
2023-01-30T01:29:58.491Z,9.06
2023-01-30T01:31:59.388Z,9.12
2023-01-30T01:34:59.475Z,9.04
2023-01-30T01:37:59.209Z,8.93
2023-01-30T01:40:00.130Z,8.91
2023-01-30T01:42:59.350Z,8.89
2023-01-30T01:44:59.687Z,8.95
2023-01-30T01:47:59.182Z,8.79
2023-01-30T01:49:59.198Z,8.78
2023-01-30T01:51:59.316Z,8.79
2023-01-30T01:54:59.470Z,8.72
2023-01-30T01:57:59.175Z,8.68
2023-01-30T01:59:59.199Z,8.7
2023-01-30T02:02:59.509Z,8.71
2023-01-30T02:05:59.799Z,8.72
2023-01-30T02:08:59.205Z,8.93
2023-01-30T02:11:59.661Z,9.08
2023-01-30T02:14:59.211Z,8.99
2023-01-30T02:16:59.802Z,8.87
2023-01-30T02:19:59.202Z,8.84
2023-01-30T02:24:06.076Z,8.84
2023-01-30T02:26:12.409Z,8.88
2023-01-30T02:28:59.223Z,8.85
2023-01-30T02:30:59.864Z,8.81
2023-01-30T02:34:05.763Z,8.81
2023-01-30T02:37:58.231Z,8.92
2023-01-30T02:40:12.954Z,9.12
2023-01-30T02:43:05.785Z,9.31
2023-01-30T02:46:59.207Z,9.02
2023-01-30T02:48:59.636Z,8.91
2023-01-30T02:52:05.743Z,8.91
2023-01-30T02:55:59.253Z,8.85
2023-01-30T02:57:59.420Z,8.78
2023-01-30T03:01:58.252Z,8.79
2023-01-30T03:04:05.818Z,8.82
2023-01-30T03:06:59.279Z,8.83
2023-01-30T03:09:59.150Z,8.53
2023-01-30T03:11:59.846Z,8.41
2023-01-30T03:14:12.332Z,8.51
2023-01-30T03:16:12.411Z,8.68
2023-01-30T03:19:13.160Z,8.88
2023-01-30T03:22:06.127Z,8.71
2023-01-30T03:25:05.774Z,8.3
2023-01-30T03:27:06.234Z,8.37
2023-01-30T03:29:12.837Z,8.57
2023-01-30T03:33:06.600Z,8.83
2023-01-30T03:38:12.331Z,8.93
2023-01-30T03:41:06.096Z,8.92
2023-01-30T03:43:59.771Z,8.88
2023-01-30T03:46:59.458Z,8.93
2023-01-30T03:50:05.744Z,8.97
2023-01-30T03:52:06.044Z,8.92
2023-01-30T03:54:59.235Z,8.82
2023-01-30T03:56:59.237Z,8.72
2023-01-30T03:58:59.892Z,8.72
2023-01-30T04:01:05.847Z,8.66
2023-01-30T04:03:59.551Z,8.57
2023-01-30T04:06:59.214Z,8.39
2023-01-30T04:09:58.261Z,8.29
2023-01-30T04:12:05.740Z,8.22
2023-01-30T04:14:59.171Z,8.43
2023-01-30T04:16:59.218Z,8.41
2023-01-30T04:19:59.254Z,8.1
2023-01-30T04:23:06.250Z,8.45
2023-01-30T04:26:04.810Z,8.49
2023-01-30T04:28:12.944Z,8.51
2023-01-30T04:31:05.866Z,8.47
2023-01-30T04:33:59.175Z,8.6
2023-01-30T04:35:59.765Z,8.68
2023-01-30T04:39:06.097Z,8.67
2023-01-30T04:42:59.173Z,8.56
2023-01-30T04:44:59.198Z,8.57
2023-01-30T04:46:59.631Z,8.54
2023-01-30T04:49:05.760Z,8.52
2023-01-30T04:51:59.720Z,8.52
2023-01-30T04:54:59.186Z,8.34
2023-01-30T04:56:59.266Z,8.47
2023-01-30T04:59:05.765Z,8.53
2023-01-30T05:01:06.220Z,8.6
2023-01-30T05:03:12.357Z,8.6
2023-01-30T05:06:05.780Z,8.8
2023-01-30T05:08:59.257Z,8.78
2023-01-30T05:11:59.190Z,8.75
2023-01-30T05:14:59.186Z,8.68
2023-01-30T05:17:19.291Z,8.71
2023-01-30T05:20:05.732Z,8.87
2023-01-30T05:22:05.988Z,8.91
2023-01-30T05:24:06.240Z,8.81
2023-01-30T05:27:05.736Z,8.92
2023-01-30T05:29:12.845Z,8.93
2023-01-30T05:32:06.444Z,8.95
2023-01-30T05:34:59.145Z,8.91
2023-01-30T05:36:59.184Z,9.1
2023-01-30T05:41:06.053Z,9.05
2023-01-30T05:43:13.181Z,9.08
2023-01-30T05:46:12.898Z,9.01
2023-01-30T05:49:06.257Z,8.89
2023-01-30T05:53:12.642Z,8.64
2023-01-30T05:55:12.842Z,8.67
2023-01-30T05:58:06.370Z,8.64
2023-01-30T06:03:06.049Z,8.82
2023-01-30T06:05:12.326Z,8.72
2023-01-30T06:08:05.739Z,8.77
2023-01-30T06:10:06.407Z,8.7
2023-01-30T06:13:06.336Z,8.72
2023-01-30T06:15:12.883Z,8.97
2023-01-30T06:17:59.186Z,9.17
2023-01-30T06:20:59.148Z,9.24
2023-01-30T06:23:00.117Z,9.25
2023-01-30T06:25:05.775Z,9.26
2023-01-30T06:28:59.192Z,9.01
2023-01-30T06:30:59.780Z,8.97
2023-01-30T06:35:05.795Z,9.04
2023-01-30T06:37:06.075Z,9.02
2023-01-30T06:39:06.333Z,8.99
2023-01-30T06:41:59.672Z,8.84
2023-01-30T06:43:59.753Z,8.99
2023-01-30T06:48:06.678Z,8.96
2023-01-30T06:51:05.753Z,8.96
2023-01-30T06:53:59.177Z,9.1
2023-01-30T06:56:59.201Z,9.04
2023-01-30T06:58:59.902Z,8.89
2023-01-30T07:01:05.726Z,8.93
2023-01-30T07:05:00.262Z,9.02
2023-01-30T07:08:59.216Z,9.21
2023-01-30T07:12:06.653Z,9.17
2023-01-30T07:14:58.273Z,9.22
2023-01-30T07:16:59.773Z,9.27
2023-01-30T07:19:59.163Z,9.3
2023-01-30T07:22:05.734Z,9.32
2023-01-30T07:24:05.979Z,9.34
2023-01-30T07:26:59.153Z,9.43
2023-01-30T07:29:00.081Z,9.45
2023-01-30T07:31:06.277Z,9.35
2023-01-30T07:33:59.183Z,9.39
2023-01-30T07:36:59.192Z,9.27
2023-01-30T07:38:59.781Z,9.1
2023-01-30T07:41:59.716Z,9.06
2023-01-30T07:44:59.174Z,9.1
2023-01-30T07:47:59.137Z,9.13
2023-01-30T07:49:59.182Z,8.91
2023-01-30T07:51:59.147Z,8.64
2023-01-30T07:55:01.440Z,8.71
2023-01-30T07:57:59.180Z,8.85
2023-01-30T07:59:59.180Z,8.89
2023-01-30T08:03:00.034Z,8.8
2023-01-30T08:05:59.165Z,8.58
2023-01-30T08:07:59.504Z,8.41
2023-01-30T08:10:59.167Z,8.35
2023-01-30T08:12:59.134Z,8.32
2023-01-30T08:14:59.208Z,8.39
2023-01-30T08:16:59.283Z,8.18
2023-01-30T08:19:59.185Z,7.97
2023-01-30T08:21:59.705Z,7.93
2023-01-30T08:24:59.269Z,8
2023-01-30T08:27:05.735Z,7.99
2023-01-30T08:29:06.461Z,7.99
2023-01-30T08:31:59.191Z,8.03
2023-01-30T08:33:59.277Z,8.04
2023-01-30T08:35:59.655Z,8.14
2023-01-30T08:40:06.492Z,8.13
2023-01-30T08:42:59.997Z,8.14
2023-01-30T08:45:00.024Z,8.34
2023-01-30T08:47:59.191Z,8.49
2023-01-30T08:50:59.155Z,8.47
2023-01-30T08:53:05.966Z,8.41
2023-01-30T08:55:06.418Z,8.32
2023-01-30T08:58:59.405Z,8.47
2023-01-30T09:02:59.180Z,8.53
2023-01-30T09:05:06.435Z,8.72
2023-01-30T09:08:59.178Z,8.67
2023-01-30T09:11:59.155Z,8.6
2023-01-30T09:13:59.171Z,8.49
2023-01-30T09:16:05.755Z,8.39
2023-01-30T09:18:05.742Z,8.33
2023-01-30T09:20:59.400Z,8.24
2023-01-30T09:23:59.136Z,8.25
2023-01-30T09:25:59.741Z,8.27
2023-01-30T09:29:06.254Z,8.08
2023-01-30T09:32:06.003Z,8.2
2023-01-30T09:34:12.642Z,8.21
2023-01-30T09:37:05.236Z,8.21
2023-01-30T09:39:59.870Z,8.28
2023-01-30T09:43:59.751Z,8.35
2023-01-30T09:47:58.275Z,8.78
2023-01-30T09:50:05.842Z,8.85
2023-01-30T09:53:12.448Z,8.88
2023-01-30T09:56:12.868Z,8.81
2023-01-30T09:58:18.941Z,8.72
2023-01-30T10:01:12.340Z,8.72
2023-01-30T10:05:01.180Z,8.85
2023-01-30T10:06:59.714Z,8.92
2023-01-30T10:10:06.088Z,8.96
2023-01-30T10:13:05.751Z,9.02
2023-01-30T10:15:12.431Z,8.93
2023-01-30T10:18:06.111Z,8.92
2023-01-30T10:21:05.758Z,8.87
2023-01-30T10:23:59.186Z,9
2023-01-30T10:25:59.379Z,9.02
2023-01-30T10:34:06.110Z,9.22
2023-01-30T10:36:06.514Z,9.25
2023-01-30T10:38:59.179Z,9.13
2023-01-30T10:40:59.368Z,9.29
2023-01-30T10:43:59.194Z,9.31
2023-01-30T10:45:59.239Z,9.39
2023-01-30T10:47:59.805Z,9.43
2023-01-30T10:50:59.216Z,9.43
2023-01-30T10:53:59.151Z,9.35
2023-01-30T10:55:59.702Z,9.35
2023-01-30T10:58:59.169Z,9.22
2023-01-30T11:00:59.949Z,9.32
2023-01-30T11:03:59.166Z,9.34
2023-01-30T11:05:59.498Z,9.3
2023-01-30T11:11:06.278Z,9.35
2023-01-30T11:14:59.267Z,9.47
2023-01-30T11:21:59.779Z,9.83
2023-01-30T11:24:59.172Z,10.12
2023-01-30T11:26:59.202Z,10.17
2023-01-30T11:29:12.385Z,10.26
2023-01-30T11:32:12.346Z,10.32
2023-01-30T11:35:05.773Z,10.35
2023-01-30T11:37:59.188Z,10.22
2023-01-30T11:40:59.186Z,10.3
2023-01-30T11:42:59.255Z,10.34
2023-01-30T11:45:59.527Z,10.45
2023-01-30T11:48:23.724Z,10.49
2023-01-30T11:50:59.247Z,10.57
2023-01-30T11:53:59.667Z,10.58
2023-01-30T11:56:59.210Z,10.55
2023-01-30T11:59:06.219Z,10.53
2023-01-30T12:01:59.215Z,10.57
2023-01-30T12:03:59.834Z,10.72
2023-01-30T12:07:05.738Z,10.84
2023-01-30T12:09:06.212Z,10.93
2023-01-30T12:11:59.218Z,10.95
2023-01-30T12:13:59.782Z,10.99
2023-01-30T12:16:59.197Z,10.94
2023-01-30T12:19:06.478Z,10.82
2023-01-30T12:22:05.759Z,10.86
2023-01-30T12:24:59.561Z,10.8
2023-01-30T12:26:59.880Z,10.82
2023-01-30T12:28:59.825Z,10.83
2023-01-30T12:32:05.772Z,10.78
2023-01-30T12:34:59.173Z,10.75
2023-01-30T12:36:59.251Z,10.8
2023-01-30T12:39:59.177Z,10.81
2023-01-30T12:42:06.170Z,10.67
2023-01-30T12:44:06.192Z,10.45
2023-01-30T12:47:59.176Z,10.32
2023-01-30T12:50:59.895Z,10.32
2023-01-30T12:53:06.386Z,10.3
2023-01-30T12:58:12.367Z,10.31
2023-01-30T13:01:06.655Z,10.27
2023-01-30T13:05:03.864Z,10.29
2023-01-30T13:08:59.906Z,10.22
2023-01-30T13:12:06.448Z,10.26
2023-01-30T13:14:59.163Z,10.18
2023-01-30T13:17:59.390Z,10.2
2023-01-30T13:21:06.393Z,10.25
2023-01-30T13:24:05.780Z,10.18
2023-01-30T13:26:13.017Z,10.08
2023-01-30T13:29:13.133Z,10.01
2023-01-30T13:31:59.596Z,10.1
2023-01-30T13:34:59.240Z,10.22
2023-01-30T13:36:59.603Z,10.39
2023-01-30T13:40:06.625Z,10.61
2023-01-30T13:44:12.839Z,10.8
2023-01-30T13:48:05.732Z,10.96
2023-01-30T13:51:59.476Z,11.08
2023-01-30T13:53:59.697Z,11.09
2023-01-30T13:55:59.748Z,11.2
2023-01-30T13:57:59.907Z,11.09
2023-01-30T14:03:58.242Z,11.13
2023-01-30T14:06:06.388Z,11.13
2023-01-30T14:09:59.182Z,11.12
2023-01-30T14:22:59.277Z,11.33
2023-01-30T14:24:59.869Z,11.3
2023-01-30T14:27:12.788Z,11.4
2023-01-30T14:30:06.313Z,11.4
2023-01-30T14:32:13.074Z,11.39
2023-01-30T14:34:12.876Z,11.32
2023-01-30T14:37:06.113Z,11.23
2023-01-30T14:39:59.159Z,11.1
2023-01-30T14:41:59.144Z,11.07
2023-01-30T14:43:59.167Z,10.95
2023-01-30T14:46:08.331Z,10.95
2023-01-30T14:48:59.338Z,10.89
2023-01-30T14:50:59.680Z,10.86
2023-01-30T14:53:59.241Z,10.8
2023-01-30T14:55:59.647Z,10.73
2023-01-30T14:58:05.768Z,10.83
2023-01-30T15:00:18.092Z,10.89
2023-01-30T15:02:59.238Z,10.88
2023-01-30T15:06:00.115Z,11.15
2023-01-30T15:08:04.810Z,11.16
2023-01-30T15:10:05.885Z,11.17
2023-01-30T15:14:12.803Z,11.29
2023-01-30T15:17:06.759Z,11.19
2023-01-30T15:19:05.727Z,11.14
2023-01-30T15:22:06.131Z,11.01
2023-01-30T15:25:13.001Z,10.97
2023-01-30T15:28:05.769Z,10.84
2023-01-30T15:30:06.270Z,10.82
2023-01-30T15:32:59.179Z,10.84
2023-01-30T15:34:59.880Z,10.83
2023-01-30T15:38:58.372Z,10.81
2023-01-30T15:41:12.338Z,10.75
2023-01-30T15:44:06.462Z,10.83
2023-01-30T15:47:00.137Z,10.9
2023-01-30T15:49:59.435Z,10.9
2023-01-30T15:52:59.197Z,10.93
2023-01-30T15:55:05.800Z,10.87
2023-01-30T15:58:12.359Z,10.66
2023-01-30T16:01:05.812Z,10.51
2023-01-30T16:03:05.992Z,10.51
2023-01-30T16:06:06.123Z,10.49
2023-01-30T16:08:06.236Z,10.55
2023-01-30T16:11:05.801Z,10.61
2023-01-30T16:13:05.933Z,10.65
2023-01-30T16:15:18.672Z,10.69
2023-01-30T16:17:59.217Z,10.64
2023-01-30T16:19:59.943Z,10.63
2023-01-30T16:23:59.174Z,10.48
2023-01-30T16:26:05.744Z,10.54
2023-01-30T16:29:59.723Z,10.53
2023-01-30T16:35:06.143Z,10.32
2023-01-30T16:37:59.440Z,10.33
2023-01-30T16:40:59.746Z,10.33
2023-01-30T16:43:59.782Z,10.14
2023-01-30T16:46:05.784Z,10.13
2023-01-30T16:49:59.295Z,10.2
2023-01-30T16:52:59.184Z,10.25
2023-01-30T16:54:59.240Z,10.25
2023-01-30T16:57:05.762Z,10.33
2023-01-30T16:59:06.282Z,10.31
2023-01-30T17:01:12.372Z,10.22
2023-01-30T17:04:06.000Z,10.16
2023-01-30T17:07:12.457Z,10.06
2023-01-30T17:09:13.351Z,9.99
2023-01-30T17:12:05.844Z,10.03
2023-01-30T17:14:12.374Z,10.02
2023-01-30T17:17:05.778Z,10.12
2023-01-30T17:21:13.155Z,10.33
2023-01-30T17:24:19.310Z,10.33
2023-01-30T17:27:06.498Z,10.14
2023-01-30T17:30:05.738Z,10.13
2023-01-30T17:33:06.051Z,10.1
2023-01-30T17:35:06.127Z,10.14
2023-01-30T17:38:05.072Z,10.1
2023-01-30T17:41:58.216Z,10.03
2023-01-30T17:44:05.765Z,10.03
2023-01-30T17:46:59.701Z,10.03
2023-01-30T17:49:12.394Z,9.96
2023-01-30T17:51:16.461Z,9.97
2023-01-30T17:54:18.929Z,10.03
2023-01-30T17:57:05.905Z,10.12
2023-01-30T17:59:06.573Z,10.28
2023-01-30T18:01:59.328Z,10.36
2023-01-30T18:04:59.883Z,10.25
2023-01-30T18:07:59.154Z,10.08
2023-01-30T18:09:59.212Z,10.03
2023-01-30T18:11:59.659Z,9.97
2023-01-30T18:14:59.979Z,10.22
2023-01-30T18:18:00.275Z,10.26
2023-01-30T18:20:59.720Z,10.22
2023-01-30T18:25:06.107Z,9.93
2023-01-30T18:27:06.393Z,9.88
2023-01-30T18:29:12.651Z,9.93
2023-01-30T18:32:05.868Z,9.88
2023-01-30T18:34:59.974Z,9.88
2023-01-30T18:38:02.709Z,9.82
2023-01-30T18:41:06.819Z,9.87
2023-01-30T18:43:06.076Z,9.97
2023-01-30T18:46:00.223Z,9.85
2023-01-30T18:47:59.528Z,9.87
2023-01-30T18:50:56.242Z,9.78
2023-01-30T18:53:06.048Z,9.68
2023-01-30T18:56:12.460Z,9.62
2023-01-30T18:59:05.823Z,9.68
2023-01-30T19:01:06.348Z,9.75
2023-01-30T19:05:05.788Z,9.7
2023-01-30T19:07:05.951Z,9.64
2023-01-30T19:09:12.366Z,9.66
2023-01-30T19:12:06.178Z,9.63
2023-01-30T19:15:59.213Z,9.68
2023-01-30T19:18:59.230Z,9.78
2023-01-30T19:22:06.197Z,9.83
2023-01-30T19:25:00.272Z,9.91
2023-01-30T19:29:12.315Z,10.03
2023-01-30T19:33:59.819Z,9.92
2023-01-30T19:36:59.252Z,9.97
2023-01-30T19:41:05.772Z,10.08
2023-01-30T19:43:10.724Z,9.97
2023-01-30T19:46:00.123Z,10.06
2023-01-30T19:48:59.291Z,10.29
2023-01-30T19:51:05.753Z,10.38
2023-01-30T19:53:05.795Z,10.45
2023-01-30T19:55:59.159Z,10.42
2023-01-30T19:57:59.210Z,10.39
2023-01-30T20:01:06.154Z,10.39
2023-01-30T20:05:12.594Z,10.37
2023-01-30T20:08:05.791Z,10.33
2023-01-30T20:12:12.339Z,10.22
2023-01-30T20:15:06.364Z,10.1
2023-01-30T20:17:59.182Z,10.07
2023-01-30T20:19:59.229Z,10.07
2023-01-30T20:25:06.206Z,10.18
2023-01-30T20:28:59.207Z,10.13
2023-01-30T20:30:59.300Z,10.16
2023-01-30T20:34:04.852Z,10.24
2023-01-30T20:36:06.471Z,10.2
2023-01-30T20:38:59.975Z,10.17
2023-01-30T20:41:59.202Z,10.16
2023-01-30T20:43:59.424Z,10.12
2023-01-30T20:46:59.672Z,10.09
2023-01-30T20:49:06.327Z,10.12
2023-01-30T20:52:00.018Z,10.13
2023-01-30T20:55:59.280Z,10
2023-01-30T20:58:59.708Z,10.03
2023-01-30T21:01:05.885Z,10.1
2023-01-30T21:04:59.174Z,10.05
2023-01-30T21:06:59.995Z,10.02
2023-01-30T21:09:00.029Z,10.02
2023-01-30T21:12:12.826Z,10.07
2023-01-30T21:15:00.652Z,10.09
2023-01-30T21:17:59.164Z,10.01
2023-01-30T21:20:58.266Z,10.06
2023-01-30T21:23:05.859Z,10.07
2023-01-30T21:25:59.583Z,10
2023-01-30T21:27:59.943Z,10.01
2023-01-30T21:30:59.343Z,10.02
2023-01-30T21:34:00.137Z,9.99
2023-01-30T21:36:59.318Z,9.92
2023-01-30T21:38:59.905Z,9.89
2023-01-30T21:41:59.188Z,10.02
2023-01-30T21:43:59.875Z,10.04
2023-01-30T21:46:59.172Z,10.04
2023-01-30T21:50:00.166Z,9.95
2023-01-30T21:52:59.681Z,9.85
2023-01-30T21:55:59.298Z,9.85
2023-01-30T21:57:59.451Z,9.89
2023-01-30T22:00:59.201Z,9.85
2023-01-30T22:02:59.292Z,9.89
2023-01-30T22:05:59.181Z,9.89
2023-01-30T22:08:59.920Z,9.85
2023-01-30T22:12:58.288Z,9.92
2023-01-30T22:15:06.627Z,9.97
2023-01-30T22:17:59.203Z,10.02
2023-01-30T22:20:59.184Z,9.95
2023-01-30T22:25:06.010Z,9.95
2023-01-30T22:28:07.732Z,10.01
2023-01-30T22:30:12.329Z,9.97
2023-01-30T22:33:06.230Z,9.75
2023-01-30T22:35:59.285Z,9.72
2023-01-30T22:38:59.241Z,9.77
2023-01-30T22:40:59.841Z,9.71
2023-01-30T22:43:59.185Z,9.76
2023-01-30T22:46:00.753Z,9.83
2023-01-30T22:49:59.453Z,9.95
2023-01-30T22:53:12.350Z,10
2023-01-30T22:56:59.161Z,10.04
2023-01-30T22:58:59.185Z,10.03
2023-01-30T23:00:59.204Z,9.99
2023-01-30T23:03:05.777Z,10.01
2023-01-30T23:05:05.765Z,9.97
2023-01-30T23:07:59.188Z,9.85
2023-01-30T23:09:59.627Z,9.81
2023-01-30T23:13:05.775Z,9.82
2023-01-30T23:15:59.208Z,9.83
2023-01-30T23:17:59.630Z,9.8
2023-01-30T23:20:59.186Z,9.74
2023-01-30T23:24:06.661Z,9.76
2023-01-30T23:28:59.168Z,9.81
2023-01-30T23:32:06.271Z,9.79
2023-01-30T23:35:58.235Z,9.81
2023-01-30T23:38:12.374Z,9.77
2023-01-30T23:42:12.330Z,9.62
2023-01-30T23:45:05.917Z,9.52
2023-01-30T23:48:59.248Z,9.57
2023-01-30T23:50:59.550Z,9.43
2023-01-30T23:54:05.803Z,9.45
2023-01-30T23:56:06.376Z,9.49
2023-01-30T23:58:12.409Z,9.45
